Time;durP1;ratioP1;P1;durP2;ratioP2;P2;SDS_P1;SDS_P2;PMS_P1;PMS_P2;Temp;Humidity;BMP_temperature;BMP_pressure;BME280_temperature;BME280_humidity;BME280_pressure;Samples;Min_cycle;Max_cycle;Signal;HPM_P1;HPM_P2
2022/04/01 00:00:01;;;;;;;6.15;5.65;;;;;;;;;;5062412;28;20242;-68
2022/04/01 00:02:27;;;;;;;6.82;6.22;;;;;;;;;;5062360;28;20559;-68
2022/04/01 00:04:55;;;;;;;6.63;6.13;;;;;;;;;;5062419;28;20193;-68
2022/04/01 00:07:21;;;;;;;7.63;6.47;;;;;;;;;;5062114;28;20519;-68
2022/04/01 00:09:47;;;;;;;6.07;5.57;;;;;;;;;;5062260;28;20369;-68
2022/04/01 00:12:14;;;;;;;5.63;5.22;;;;;;;;;;5062242;28;20559;-68
2022/04/01 00:14:40;;;;;;;6.20;5.70;;;;;;;;;;5062204;28;20224;-68
2022/04/01 00:17:06;;;;;;;5.03;4.72;;;;;;;;;;5061866;28;20197;-68
2022/04/01 00:19:33;;;;;;;4.65;4.35;;;;;;;;;;5062248;28;20262;-68
2022/04/01 00:22:00;;;;;;;5.47;5.07;;;;;;;;;;5062312;28;20235;-68
2022/04/01 00:24:26;;;;;;;5.18;4.78;;;;;;;;;;5062095;28;20543;-68
2022/04/01 00:26:53;;;;;;;5.95;5.47;;;;;;;;;;5061949;28;20197;-68
2022/04/01 00:29:20;;;;;;;6.72;5.40;;;;;;;;;;5062087;28;20193;-68
2022/04/01 00:31:48;;;;;;;5.90;5.38;;;;;;;;;;5062016;28;20236;-68
2022/04/01 00:34:17;;;;;;;6.47;5.97;;;;;;;;;;5062155;28;20201;-68
2022/04/01 00:36:44;;;;;;;6.90;6.20;;;;;;;;;;5061868;28;20197;-68
2022/04/01 00:39:12;;;;;;;8.73;6.40;;;;;;;;;;5061895;28;20220;-68
2022/04/01 00:41:38;;;;;;;7.63;6.93;;;;;;;;;;5061821;28;20235;-68
2022/04/01 00:44:12;;;;;;;7.30;6.70;;;;;;;;;;5062401;28;20235;-68
2022/04/01 00:46:39;;;;;;;8.55;7.75;;;;;;;;;;5061792;28;20197;-68
2022/04/01 00:49:06;;;;;;;8.13;7.32;;;;;;;;;;5061900;28;20247;-68
2022/04/01 00:51:32;;;;;;;8.00;7.30;;;;;;;;;;5061994;28;20397;-68
2022/04/01 00:53:59;;;;;;;8.48;7.57;;;;;;;;;;5065698;28;20382;-68
2022/04/01 00:56:29;;;;;;;8.18;7.35;;;;;;;;;;5066027;28;20232;-68
2022/04/01 00:58:55;;;;;;;7.95;7.25;;;;;;;;;;5065685;28;20454;-68
2022/04/01 01:01:22;;;;;;;8.50;7.78;;;;;;;;;;5065923;28;20505;-68
2022/04/01 01:03:49;;;;;;;9.18;8.27;;;;;;;;;;5065745;28;20197;-68
2022/04/01 01:06:16;;;;;;;9.80;8.85;;;;;;;;;;5065448;28;20255;-68
2022/04/01 01:08:43;;;;;;;8.80;7.97;;;;;;;;;;5065703;28;20268;-68
2022/04/01 01:11:09;;;;;;;8.95;7.93;;;;;;;;;;5065491;28;20197;-68
2022/04/01 01:13:37;;;;;;;9.10;8.30;;;;;;;;;;5065533;28;20251;-68
2022/04/01 01:16:04;;;;;;;8.65;7.80;;;;;;;;;;5065446;28;20398;-68
2022/04/01 01:18:30;;;;;;;9.05;8.18;;;;;;;;;;5065245;28;20243;-68
2022/04/01 01:20:56;;;;;;;9.35;8.43;;;;;;;;;;5065476;28;20201;-68
2022/04/01 01:23:27;;;;;;;8.70;7.90;;;;;;;;;;5065266;28;20231;-68
2022/04/01 01:25:55;;;;;;;8.07;7.35;;;;;;;;;;5065239;28;20244;-68
2022/04/01 01:28:21;;;;;;;7.47;6.93;;;;;;;;;;5064985;28;20197;-68
2022/04/01 01:30:47;;;;;;;7.90;7.30;;;;;;;;;;5065173;28;20208;-68
2022/04/01 01:33:14;;;;;;;7.45;6.88;;;;;;;;;;5065266;28;20204;-68
2022/04/01 01:35:40;;;;;;;7.50;6.80;;;;;;;;;;5065293;28;20244;-68
2022/04/01 01:38:08;;;;;;;6.97;6.38;;;;;;;;;;5065119;28;20197;-68
2022/04/01 01:40:34;;;;;;;7.68;6.97;;;;;;;;;;5065099;28;20229;-68
2022/04/01 01:43:02;;;;;;;8.10;7.43;;;;;;;;;;5064870;28;20197;-67
2022/04/01 01:45:29;;;;;;;7.93;7.22;;;;;;;;;;5065021;28;20204;-68
2022/04/01 01:47:55;;;;;;;7.30;6.53;;;;;;;;;;5065088;28;20197;-68
2022/04/01 01:55:50;;;;;;;7.50;6.80;;;;;;;;;;5064719;28;20196;-68
2022/04/01 01:58:18;;;;;;;7.82;7.13;;;;;;;;;;5064597;28;20200;-68
2022/04/01 02:00:45;;;;;;;8.15;7.38;;;;;;;;;;5064534;28;20269;-68
2022/04/01 02:03:12;;;;;;;8.20;7.50;;;;;;;;;;5064166;28;20197;-68
2022/04/01 02:05:38;;;;;;;7.93;7.20;;;;;;;;;;5064696;28;20267;-68
2022/04/01 02:08:05;;;;;;;8.48;7.53;;;;;;;;;;5064220;28;20197;-68
2022/04/01 02:10:31;;;;;;;7.68;6.97;;;;;;;;;;5064513;28;20235;-68
2022/04/01 02:12:58;;;;;;;7.70;7.10;;;;;;;;;;5064348;28;20205;-68
2022/04/01 02:15:25;;;;;;;8.55;7.75;;;;;;;;;;5064317;28;20197;-68
2022/04/01 02:17:52;;;;;;;8.52;7.72;;;;;;;;;;5064122;28;20243;-68
2022/04/01 02:20:18;;;;;;;8.55;7.75;;;;;;;;;;5064246;28;20259;-68
2022/04/01 02:22:44;;;;;;;8.00;7.30;;;;;;;;;;5064281;28;20247;-68
2022/04/01 02:25:11;;;;;;;8.13;7.43;;;;;;;;;;5064194;28;20383;-68
2022/04/01 02:27:38;;;;;;;8.10;7.32;;;;;;;;;;5063844;28;20204;-68
2022/04/01 02:30:10;;;;;;;7.95;7.25;;;;;;;;;;5064254;28;20369;-68
2022/04/01 02:32:37;;;;;;;7.53;6.82;;;;;;;;;;5064167;28;20389;-68
2022/04/01 02:35:04;;;;;;;7.57;6.90;;;;;;;;;;5064141;28;20235;-68
2022/04/01 02:37:31;;;;;;;8.75;7.85;;;;;;;;;;5063776;28;20280;-68
2022/04/01 02:39:57;;;;;;;9.00;8.20;;;;;;;;;;5064319;28;20274;-68
2022/04/01 02:42:23;;;;;;;8.40;7.60;;;;;;;;;;5063791;28;20243;-68
2022/04/01 02:44:49;;;;;;;8.25;7.50;;;;;;;;;;5064068;28;20254;-68
2022/04/01 02:47:16;;;;;;;9.02;8.00;;;;;;;;;;5063666;28;20219;-68
2022/04/01 02:49:43;;;;;;;8.23;7.53;;;;;;;;;;5063644;28;20417;-68
2022/04/01 02:52:09;;;;;;;9.35;8.48;;;;;;;;;;5063748;28;20201;-68
2022/04/01 02:54:36;;;;;;;9.43;8.43;;;;;;;;;;5063598;28;20235;-68
2022/04/01 02:57:03;;;;;;;8.30;7.50;;;;;;;;;;5063416;28;20431;-68
2022/04/01 02:59:29;;;;;;;8.27;7.57;;;;;;;;;;5063604;28;20415;-68
2022/04/01 03:01:56;;;;;;;8.40;7.68;;;;;;;;;;5063541;28;20416;-68
2022/04/01 03:04:22;;;;;;;9.75;8.80;;;;;;;;;;5063465;28;20219;-68
2022/04/01 03:06:50;;;;;;;9.40;8.52;;;;;;;;;;5063145;28;20383;-68
2022/04/01 03:09:16;;;;;;;9.10;8.27;;;;;;;;;;5063316;28;20212;-68
2022/04/01 03:11:43;;;;;;;9.15;8.35;;;;;;;;;;5063434;28;20209;-68
2022/04/01 03:14:10;;;;;;;10.43;9.25;;;;;;;;;;5063103;28;20197;-68
2022/04/01 03:16:37;;;;;;;9.88;8.88;;;;;;;;;;5062608;28;20411;-68
2022/04/01 03:19:04;;;;;;;9.85;8.95;;;;;;;;;;5063301;28;20243;-68
2022/04/01 03:21:34;;;;;;;9.77;8.88;;;;;;;;;;5063195;28;20193;-68
2022/04/01 03:24:02;;;;;;;9.73;8.82;;;;;;;;;;5063063;28;20239;-68
2022/04/01 03:26:28;;;;;;;9.57;8.73;;;;;;;;;;5062793;28;20204;-68
2022/04/01 03:28:54;;;;;;;8.95;8.15;;;;;;;;;;5062957;28;20196;-68
2022/04/01 03:31:21;;;;;;;8.75;7.97;;;;;;;;;;5062880;28;20524;-68
2022/04/01 03:33:47;;;;;;;8.82;7.88;;;;;;;;;;5062877;28;20196;-68
2022/04/01 03:36:14;;;;;;;8.75;8.00;;;;;;;;;;5062621;28;20370;-68
2022/04/01 03:38:41;;;;;;;9.13;8.32;;;;;;;;;;5062718;28;20474;-68
2022/04/01 03:41:10;;;;;;;8.98;8.18;;;;;;;;;;5062584;28;20269;-68
2022/04/01 03:43:37;;;;;;;8.52;7.82;;;;;;;;;;5062716;28;20496;-68
2022/04/01 03:46:06;;;;;;;8.52;7.63;;;;;;;;;;5062931;28;20221;-68
2022/04/01 03:48:39;;;;;;;8.48;7.53;;;;;;;;;;5062566;28;20364;-68
2022/04/01 03:51:05;;;;;;;8.27;7.57;;;;;;;;;;5062522;28;20424;-68
2022/04/01 03:53:33;;;;;;;7.03;6.53;;;;;;;;;;5062656;28;20243;-68
2022/04/01 03:56:00;;;;;;;7.13;6.60;;;;;;;;;;5062454;28;20203;-68
2022/04/01 03:58:29;;;;;;;7.45;6.85;;;;;;;;;;5062469;28;20203;-68
2022/04/01 04:00:57;;;;;;;7.32;6.68;;;;;;;;;;5062453;28;20449;-68
2022/04/01 04:03:24;;;;;;;7.28;6.68;;;;;;;;;;5062396;28;20430;-68
2022/04/01 04:05:51;;;;;;;7.20;6.70;;;;;;;;;;5062403;28;20223;-68
2022/04/01 04:08:18;;;;;;;7.22;6.63;;;;;;;;;;5062301;28;20239;-68
2022/04/01 04:10:46;;;;;;;7.88;7.28;;;;;;;;;;5062497;28;20197;-67
2022/04/01 04:13:13;;;;;;;8.20;7.45;;;;;;;;;;5062356;28;20200;-68
2022/04/01 04:15:43;;;;;;;7.60;7.00;;;;;;;;;;5062270;28;20559;-68
2022/04/01 04:18:11;;;;;;;7.93;7.22;;;;;;;;;;5061973;28;20205;-68
2022/04/01 04:20:40;;;;;;;7.88;7.28;;;;;;;;;;5062125;28;20227;-68
2022/04/01 04:23:09;;;;;;;7.40;6.78;;;;;;;;;;5062395;28;20197;-68
2022/04/01 04:25:36;;;;;;;7.40;6.80;;;;;;;;;;5061908;28;20212;-68
2022/04/01 04:28:05;;;;;;;7.32;6.82;;;;;;;;;;5062064;28;20204;-68
2022/04/01 04:30:33;;;;;;;7.40;6.88;;;;;;;;;;5061997;28;20193;-68
2022/04/01 04:33:04;;;;;;;6.43;6.03;;;;;;;;;;5062310;28;20201;-68
2022/04/01 04:35:31;;;;;;;6.53;6.13;;;;;;;;;;5062158;28;20236;-68
2022/04/01 04:37:57;;;;;;;6.82;6.32;;;;;;;;;;5061841;28;20201;-68
2022/04/01 04:40:25;;;;;;;5.95;5.60;;;;;;;;;;5062014;28;20524;-68
2022/04/01 04:42:53;;;;;;;6.30;5.90;;;;;;;;;;5061943;28;20212;-68
2022/04/01 04:45:20;;;;;;;5.47;5.18;;;;;;;;;;5061709;28;20272;-68
2022/04/01 04:47:46;;;;;;;5.70;5.40;;;;;;;;;;5061976;28;20404;-68
2022/04/01 04:50:15;;;;;;;6.43;5.93;;;;;;;;;;5062023;28;20192;-68
2022/04/01 04:52:43;;;;;;;6.22;5.82;;;;;;;;;;5062011;28;20201;-68
2022/04/01 04:55:10;;;;;;;5.95;5.60;;;;;;;;;;5063820;28;20428;-68
2022/04/01 04:57:39;;;;;;;7.75;7.15;;;;;;;;;;5062154;28;20201;-68
2022/04/01 05:00:06;;;;;;;5.78;5.35;;;;;;;;;;5061833;28;20225;-68
2022/04/01 05:02:39;;;;;;;6.97;6.47;;;;;;;;;;5061893;28;20504;-68
2022/04/01 05:05:08;;;;;;;6.70;6.20;;;;;;;;;;5061787;28;20225;-68
2022/04/01 05:07:41;;;;;;;7.35;6.70;;;;;;;;;;5061505;28;20197;-68
2022/04/01 05:10:10;;;;;;;6.50;6.00;;;;;;;;;;5061570;28;20440;-68
2022/04/01 05:12:39;;;;;;;6.38;5.88;;;;;;;;;;5061919;28;20201;-68
2022/04/01 05:15:08;;;;;;;4.15;4.03;;;;;;;;;;5061815;28;20263;-68
2022/04/01 05:17:36;;;;;;;4.40;4.20;;;;;;;;;;5061418;28;20204;-68
2022/04/01 05:20:03;;;;;;;4.00;3.80;;;;;;;;;;5061507;28;20243;-68
2022/04/01 05:22:36;;;;;;;4.88;4.40;;;;;;;;;;5061555;28;20201;-68
2022/04/01 05:25:05;;;;;;;4.18;3.97;;;;;;;;;;5061273;28;20457;-68
2022/04/01 05:27:34;;;;;;;4.78;4.47;;;;;;;;;;5060926;28;20209;-68
2022/04/01 05:30:04;;;;;;;5.40;5.05;;;;;;;;;;5061148;28;20204;-68
2022/04/01 05:32:32;;;;;;;5.10;4.80;;;;;;;;;;5061011;28;20220;-68
2022/04/01 05:35:00;;;;;;;4.72;4.53;;;;;;;;;;5060948;28;20244;-68
2022/04/01 05:37:28;;;;;;;4.75;4.45;;;;;;;;;;5060755;28;20201;-68
2022/04/01 05:39:55;;;;;;;5.00;4.70;;;;;;;;;;5064396;28;20235;-68
2022/04/01 05:42:22;;;;;;;5.38;5.07;;;;;;;;;;5064515;28;20240;-68
2022/04/01 05:44:49;;;;;;;4.55;4.25;;;;;;;;;;5064378;28;20196;-68
2022/04/01 05:47:16;;;;;;;4.50;4.28;;;;;;;;;;5064255;28;20310;-68
2022/04/01 05:49:44;;;;;;;4.57;4.28;;;;;;;;;;5064393;28;20501;-68
2022/04/01 05:52:11;;;;;;;4.60;4.40;;;;;;;;;;5064696;28;20416;-68
2022/04/01 05:54:39;;;;;;;5.38;5.07;;;;;;;;;;5064474;28;20212;-68
2022/04/01 05:57:07;;;;;;;4.60;4.30;;;;;;;;;;5064245;28;20197;-68
2022/04/01 05:59:34;;;;;;;4.93;4.72;;;;;;;;;;5064291;28;20235;-68
2022/04/01 06:02:09;;;;;;;4.72;4.53;;;;;;;;;;5063914;28;20256;-68
2022/04/01 06:04:53;;;;;;;4.93;4.72;;;;;;;;;;5064359;28;20257;-68
2022/04/01 06:07:26;;;;;;;4.78;4.57;;;;;;;;;;5063757;28;20326;-68
2022/04/01 06:09:58;;;;;;;5.70;4.80;;;;;;;;;;5064134;28;20375;-68
2022/04/01 06:12:27;;;;;;;5.07;4.78;;;;;;;;;;5064384;28;20193;-68
2022/04/01 06:14:55;;;;;;;4.80;4.60;;;;;;;;;;5064132;28;20197;-68
2022/04/01 06:17:25;;;;;;;4.78;4.57;;;;;;;;;;5064262;28;20208;-68
2022/04/01 06:19:52;;;;;;;4.18;3.88;;;;;;;;;;5064416;28;20197;-60
2022/04/01 06:22:19;;;;;;;3.88;3.67;;;;;;;;;;5064259;28;20225;-60
2022/04/01 06:24:49;;;;;;;5.05;4.55;;;;;;;;;;5063961;28;20235;-60
2022/04/01 06:27:19;;;;;;;4.72;4.53;;;;;;;;;;5054840;28;20516;-60
2022/04/01 06:29:48;;;;;;;5.25;4.80;;;;;;;;;;5060756;28;20244;-60
2022/04/01 06:32:21;;;;;;;4.18;4.00;;;;;;;;;;5069411;28;20228;-60
2022/04/01 06:34:50;;;;;;;4.70;4.40;;;;;;;;;;5058292;28;20209;-60
2022/04/01 06:37:21;;;;;;;4.82;4.63;;;;;;;;;;5057064;28;20208;-59
2022/04/01 06:39:53;;;;;;;5.25;4.95;;;;;;;;;;5057995;28;20236;-59
2022/04/01 06:42:22;;;;;;;4.85;4.65;;;;;;;;;;5057790;28;20232;-58
2022/04/01 06:44:49;;;;;;;5.25;4.85;;;;;;;;;;5058220;28;20276;-58
2022/04/01 06:47:17;;;;;;;5.35;4.95;;;;;;;;;;5057855;28;20262;-57
2022/04/01 06:49:43;;;;;;;4.82;4.50;;;;;;;;;;5058090;28;20208;-58
2022/04/01 06:52:10;;;;;;;5.15;4.85;;;;;;;;;;5058060;28;20251;-59
2022/04/01 06:54:36;;;;;;;5.18;4.90;;;;;;;;;;5058152;28;20254;-59
2022/04/01 06:57:03;;;;;;;4.72;4.53;;;;;;;;;;5057980;28;20519;-58
2022/04/01 06:59:29;;;;;;;5.32;4.93;;;;;;;;;;5057963;28;20209;-60
2022/04/01 07:01:56;;;;;;;4.80;4.60;;;;;;;;;;5058066;28;20282;-59
2022/04/01 07:04:23;;;;;;;5.20;4.90;;;;;;;;;;5057769;28;20244;-59
2022/04/01 07:06:50;;;;;;;4.70;4.50;;;;;;;;;;5071434;28;20228;-58
2022/04/01 07:09:16;;;;;;;4.93;4.63;;;;;;;;;;5068950;28;20213;-56
2022/04/01 07:11:42;;;;;;;4.57;4.38;;;;;;;;;;5056852;28;20243;-59
2022/04/01 07:14:08;;;;;;;5.22;4.93;;;;;;;;;;5057331;28;20209;-59
2022/04/01 07:16:35;;;;;;;5.70;5.40;;;;;;;;;;5057200;28;20212;-59
2022/04/01 07:19:01;;;;;;;4.70;4.45;;;;;;;;;;5056793;28;20209;-58
2022/04/01 07:21:29;;;;;;;5.07;4.70;;;;;;;;;;5057032;28;20256;-57
2022/04/01 07:23:55;;;;;;;5.35;5.05;;;;;;;;;;5057020;28;20212;-58
2022/04/01 07:26:22;;;;;;;5.50;5.20;;;;;;;;;;5053900;28;20279;-59
2022/04/01 07:28:49;;;;;;;5.97;5.60;;;;;;;;;;5064088;28;20514;-57
2022/04/01 07:33:59;;;;;;;6.25;5.85;;;;;;;;;;5059547;28;20215;-59
2022/04/01 07:36:25;;;;;;;6.10;5.70;;;;;;;;;;5069567;28;20208;-57
2022/04/01 07:38:53;;;;;;;6.13;5.72;;;;;;;;;;5073258;28;20212;-59
2022/04/01 07:41:20;;;;;;;6.13;5.72;;;;;;;;;;5077077;28;20224;-59
2022/04/01 07:43:46;;;;;;;6.28;5.90;;;;;;;;;;5076901;28;20205;-59
2022/04/01 07:46:12;;;;;;;6.22;5.82;;;;;;;;;;5058647;28;20282;-58
2022/04/01 07:48:38;;;;;;;6.47;6.07;;;;;;;;;;5056344;28;20209;-59
2022/04/01 07:51:05;;;;;;;6.65;6.15;;;;;;;;;;5056524;28;20243;-60
2022/04/01 07:53:31;;;;;;;6.57;6.15;;;;;;;;;;5056696;28;20209;-58
2022/04/01 07:55:58;;;;;;;7.22;6.70;;;;;;;;;;5056163;28;20468;-60
2022/04/01 07:58:25;;;;;;;7.20;6.50;;;;;;;;;;5056537;28;20213;-58
2022/04/01 08:00:51;;;;;;;7.68;6.95;;;;;;;;;;5056405;28;20280;-59
2022/04/01 08:03:17;;;;;;;6.28;5.88;;;;;;;;;;5056732;28;20688;-58
2022/04/01 08:05:44;;;;;;;6.68;6.18;;;;;;;;;;5056344;28;20270;-59
2022/04/01 08:08:10;;;;;;;6.35;5.95;;;;;;;;;;5055734;28;20201;-58
2022/04/01 08:10:36;;;;;;;6.30;5.90;;;;;;;;;;5056430;28;20213;-59
2022/04/01 08:13:04;;;;;;;5.78;5.47;;;;;;;;;;5056309;28;20212;-59
2022/04/01 08:15:31;;;;;;;6.00;5.60;;;;;;;;;;5056509;28;20276;-58
2022/04/01 08:17:57;;;;;;;5.38;5.07;;;;;;;;;;5055964;28;20209;-59
2022/04/01 08:20:24;;;;;;;5.82;5.43;;;;;;;;;;5056542;28;20213;-60
2022/04/01 08:22:50;;;;;;;5.50;5.10;;;;;;;;;;5037963;28;20579;-60
2022/04/01 08:25:16;;;;;;;5.28;4.97;;;;;;;;;;5037007;28;20532;-59
2022/04/01 08:27:43;;;;;;;4.82;4.53;;;;;;;;;;5036151;28;20233;-58
2022/04/01 08:30:11;;;;;;;4.25;4.00;;;;;;;;;;5036299;28;20213;-58
2022/04/01 08:32:38;;;;;;;4.78;4.50;;;;;;;;;;5035832;28;20210;-57
2022/04/01 08:35:04;;;;;;;4.25;4.05;;;;;;;;;;5035750;28;20424;-57
2022/04/01 08:37:31;;;;;;;3.35;3.25;;;;;;;;;;5034962;28;20280;-58
2022/04/01 08:39:58;;;;;;;3.45;3.35;;;;;;;;;;5035675;28;20706;-57
2022/04/01 08:42:26;;;;;;;3.65;3.55;;;;;;;;;;5035490;28;20233;-58
2022/04/01 08:44:55;;;;;;;3.95;3.75;;;;;;;;;;5035322;28;20210;-57
2022/04/01 08:47:23;;;;;;;3.83;3.63;;;;;;;;;;5035467;28;20209;-60
2022/04/01 08:49:49;;;;;;;3.22;3.13;;;;;;;;;;5035779;28;20527;-58
2022/04/01 08:52:17;;;;;;;3.72;3.63;;;;;;;;;;5035505;28;20240;-57
2022/04/01 08:54:43;;;;;;;3.42;3.22;;;;;;;;;;5035830;28;20210;-58
2022/04/01 08:57:09;;;;;;;3.08;2.88;;;;;;;;;;5035420;28;20545;-59
2022/04/01 08:59:35;;;;;;;4.97;4.57;;;;;;;;;;5035798;28;20543;-57
2022/04/01 09:02:05;;;;;;;3.58;3.40;;;;;;;;;;5035586;28;20236;-59
2022/04/01 09:04:33;;;;;;;2.65;2.55;;;;;;;;;;5036055;28;20574;-59
2022/04/01 09:07:09;;;;;;;2.50;2.40;;;;;;;;;;5035519;28;20240;-59
2022/04/01 09:09:36;;;;;;;1.95;1.95;;;;;;;;;;5038527;28;20252;-59
2022/04/01 09:12:06;;;;;;;2.13;2.10;;;;;;;;;;5055778;28;20201;-60
2022/04/01 09:14:32;;;;;;;2.60;2.58;;;;;;;;;;5059186;28;20209;-58
2022/04/01 09:17:00;;;;;;;2.72;2.53;;;;;;;;;;5058801;28;20209;-60
2022/04/01 09:19:29;;;;;;;3.28;3.03;;;;;;;;;;5059614;28;20217;-58
2022/04/01 09:21:56;;;;;;;2.95;2.83;;;;;;;;;;5059474;28;20441;-58
2022/04/01 09:24:23;;;;;;;3.80;3.60;;;;;;;;;;5059427;28;20216;-59
2022/04/01 09:26:53;;;;;;;3.55;3.45;;;;;;;;;;5059157;28;20220;-57
2022/04/01 09:29:20;;;;;;;3.75;3.65;;;;;;;;;;5059600;28;20335;-59
2022/04/01 09:31:50;;;;;;;6.50;5.95;;;;;;;;;;5059531;28;20276;-57
2022/04/01 09:34:16;;;;;;;4.70;4.47;;;;;;;;;;5059564;28;20209;-58
2022/04/01 09:36:44;;;;;;;5.72;5.32;;;;;;;;;;5058886;28;20231;-58
2022/04/01 09:39:12;;;;;;;5.22;4.93;;;;;;;;;;5059276;28;20524;-58
2022/04/01 09:41:39;;;;;;;5.10;4.80;;;;;;;;;;5059442;28;20221;-59
2022/04/01 09:44:10;;;;;;;5.22;4.90;;;;;;;;;;5059465;28;20517;-57
2022/04/01 09:46:40;;;;;;;5.20;4.90;;;;;;;;;;5059087;28;20216;-58
2022/04/01 09:49:07;;;;;;;4.80;4.40;;;;;;;;;;5059072;28;20213;-57
2022/04/01 09:51:33;;;;;;;3.50;3.33;;;;;;;;;;5058795;28;20548;-57
2022/04/01 09:54:03;;;;;;;4.25;3.97;;;;;;;;;;5059322;28;20386;-58
2022/04/01 09:56:37;;;;;;;3.83;3.65;;;;;;;;;;5059065;28;20209;-59
2022/04/01 09:59:04;;;;;;;3.30;3.10;;;;;;;;;;5058840;28;20275;-57
2022/04/01 10:01:31;;;;;;;2.65;2.50;;;;;;;;;;5059133;28;20451;-58
2022/04/01 10:03:57;;;;;;;2.65;2.55;;;;;;;;;;5059019;28;20255;-58
2022/04/01 10:06:23;;;;;;;3.47;3.30;;;;;;;;;;5058778;28;20249;-57
2022/04/01 10:08:50;;;;;;;3.13;3.00;;;;;;;;;;5058674;28;20520;-57
2022/04/01 10:11:17;;;;;;;2.88;2.67;;;;;;;;;;5058840;28;20219;-58
2022/04/01 10:13:45;;;;;;;3.75;3.55;;;;;;;;;;5058680;28;20435;-58
2022/04/01 10:16:12;;;;;;;3.40;3.22;;;;;;;;;;5058324;28;20247;-57
2022/04/01 10:18:40;;;;;;;3.67;3.58;;;;;;;;;;5058197;28;20223;-58
2022/04/01 10:21:06;;;;;;;3.33;3.13;;;;;;;;;;5058634;28;20572;-58
2022/04/01 10:23:35;;;;;;;3.47;3.38;;;;;;;;;;5058260;28;20521;-58
2022/04/01 10:26:03;;;;;;;3.90;3.70;;;;;;;;;;5058302;28;20217;-58
2022/04/01 10:28:29;;;;;;;3.63;3.53;;;;;;;;;;5058262;28;20544;-58
2022/04/01 10:30:58;;;;;;;4.03;3.78;;;;;;;;;;5058386;28;20575;-57
2022/04/01 10:33:25;;;;;;;4.25;4.05;;;;;;;;;;5058726;28;20204;-58
2022/04/01 10:35:52;;;;;;;3.88;3.70;;;;;;;;;;5058578;28;20209;-59
2022/04/01 10:38:19;;;;;;;3.80;3.60;;;;;;;;;;5058777;28;20282;-60
2022/04/01 10:40:49;;;;;;;4.03;3.78;;;;;;;;;;5060068;28;20205;-58
2022/04/01 10:43:16;;;;;;;3.38;3.25;;;;;;;;;;5060988;28;20235;-58
2022/04/01 10:45:56;;;;;;;3.17;3.08;;;;;;;;;;5060583;28;20270;-59
2022/04/01 10:53:55;;;;;;;3.38;3.28;;;;;;;;;;5060610;28;20195;-57
2022/04/01 10:56:32;;;;;;;3.08;2.88;;;;;;;;;;5060475;28;20205;-57
2022/04/01 10:59:09;;;;;;;3.22;3.13;;;;;;;;;;5060631;28;20266;-59
2022/04/01 11:01:36;;;;;;;2.97;2.88;;;;;;;;;;5040635;28;20205;-58
2022/04/01 11:04:23;;;;;;;3.45;3.35;;;;;;;;;;5040494;28;20527;-59
2022/04/01 11:06:50;;;;;;;3.20;3.10;;;;;;;;;;5040379;28;20416;-58
2022/04/01 11:09:32;;;;;;;3.38;3.22;;;;;;;;;;5040862;28;20206;-59
2022/04/01 11:12:16;;;;;;;2.50;2.50;;;;;;;;;;5040653;28;20508;-59
2022/04/01 11:14:58;;;;;;;2.90;2.80;;;;;;;;;;5057576;28;20429;-59
2022/04/01 11:17:25;;;;;;;2.95;2.85;;;;;;;;;;5060097;28;20205;-59
2022/04/01 11:20:01;;;;;;;2.95;2.85;;;;;;;;;;5060554;28;20504;-58
2022/04/01 11:22:34;;;;;;;3.00;2.90;;;;;;;;;;5060440;28;20453;-58
2022/04/01 11:25:00;;;;;;;3.03;2.83;;;;;;;;;;5059828;28;20216;-59
2022/04/01 11:27:26;;;;;;;2.63;2.53;;;;;;;;;;5059977;28;20478;-59
2022/04/01 11:30:07;;;;;;;2.50;2.30;;;;;;;;;;5059916;28;20204;-58
2022/04/01 11:32:34;;;;;;;2.60;2.50;;;;;;;;;;5060191;28;20240;-57
2022/04/01 11:35:02;;;;;;;2.40;2.30;;;;;;;;;;5060086;28;20208;-60
2022/04/01 11:37:29;;;;;;;2.67;2.63;;;;;;;;;;5059120;28;20212;-58
2022/04/01 11:40:06;;;;;;;3.03;2.92;;;;;;;;;;5059736;28;20209;-59
2022/04/01 11:42:32;;;;;;;2.72;2.63;;;;;;;;;;5060092;28;20682;-59
2022/04/01 11:44:59;;;;;;;3.10;3.00;;;;;;;;;;5059588;28;20220;-59
2022/04/01 11:47:27;;;;;;;3.65;3.03;;;;;;;;;;5059304;28;20228;-59
2022/04/01 11:50:06;;;;;;;2.90;2.80;;;;;;;;;;5059762;28;20287;-60
2022/04/01 11:52:36;;;;;;;2.47;2.38;;;;;;;;;;5059660;28;20272;-59
2022/04/01 11:55:02;;;;;;;2.42;2.42;;;;;;;;;;5060174;28;20209;-58
2022/04/01 11:57:31;;;;;;;2.72;2.63;;;;;;;;;;5059421;28;20209;-57
2022/04/01 12:00:00;;;;;;;2.50;2.40;;;;;;;;;;5059904;28;20205;-58
2022/04/01 12:02:28;;;;;;;2.40;2.40;;;;;;;;;;5059647;28;20232;-58
2022/04/01 12:04:55;;;;;;;2.70;2.60;;;;;;;;;;5059539;28;20209;-58
2022/04/01 12:10:17;;;;;;;2.88;2.78;;;;;;;;;;5059537;28;20264;-57
2022/04/01 12:12:52;;;;;;;2.97;2.88;;;;;;;;;;5059944;28;20623;-57
2022/04/01 12:15:18;;;;;;;3.20;3.00;;;;;;;;;;5059088;28;20562;-57
2022/04/01 12:17:48;;;;;;;2.58;2.47;;;;;;;;;;5058640;28;20508;-59
2022/04/01 12:20:15;;;;;;;3.10;3.00;;;;;;;;;;5059193;28;20243;-59
2022/04/01 12:22:42;;;;;;;3.05;2.95;;;;;;;;;;5058582;28;20262;-59
2022/04/01 12:25:09;;;;;;;2.78;2.78;;;;;;;;;;5058707;28;20216;-60
2022/04/01 12:27:50;;;;;;;2.90;2.80;;;;;;;;;;5058421;28;20497;-58
2022/04/01 12:30:27;;;;;;;2.42;2.33;;;;;;;;;;5058891;28;20205;-59
2022/04/01 12:32:54;;;;;;;2.80;2.80;;;;;;;;;;5058957;28;20267;-57
2022/04/01 12:35:22;;;;;;;3.10;3.00;;;;;;;;;;5058664;28;20205;-58
2022/04/01 12:38:01;;;;;;;2.65;2.60;;;;;;;;;;5058673;28;20251;-59
2022/04/01 12:40:28;;;;;;;3.35;3.25;;;;;;;;;;5058731;28;20242;-58
2022/04/01 12:42:54;;;;;;;3.90;3.70;;;;;;;;;;5058428;28;20545;-58
2022/04/01 12:45:20;;;;;;;3.92;3.75;;;;;;;;;;5058551;28;20557;-58
2022/04/01 12:47:46;;;;;;;4.25;4.07;;;;;;;;;;5060169;28;20209;-57
2022/04/01 12:50:27;;;;;;;4.22;4.07;;;;;;;;;;5062605;28;20204;-58
2022/04/01 12:53:07;;;;;;;4.35;4.15;;;;;;;;;;5062847;28;20200;-58
2022/04/01 12:55:33;;;;;;;4.05;3.92;;;;;;;;;;5063052;28;20205;-57
2022/04/01 12:58:00;;;;;;;4.03;3.92;;;;;;;;;;5062305;28;20259;-58
2022/04/01 13:00:27;;;;;;;4.35;4.15;;;;;;;;;;5062418;28;20209;-58
2022/04/01 13:02:54;;;;;;;4.57;4.38;;;;;;;;;;5062350;28;20270;-57
2022/04/01 13:05:20;;;;;;;4.82;4.55;;;;;;;;;;5062584;28;20276;-58
2022/04/01 13:07:47;;;;;;;4.40;4.15;;;;;;;;;;5062411;28;20266;-59
2022/04/01 13:10:16;;;;;;;4.82;4.55;;;;;;;;;;5062710;28;20228;-57
2022/04/01 13:12:43;;;;;;;5.43;5.13;;;;;;;;;;5062569;28;20201;-59
2022/04/01 13:15:10;;;;;;;5.43;5.13;;;;;;;;;;5062180;28;20205;-58
2022/04/01 13:17:43;;;;;;;5.63;5.32;;;;;;;;;;5062001;28;20243;-60
2022/04/01 13:20:10;;;;;;;5.43;5.03;;;;;;;;;;5062081;28;20580;-58
2022/04/01 13:22:36;;;;;;;5.72;5.40;;;;;;;;;;5062458;28;20228;-59
2022/04/01 13:25:05;;;;;;;6.43;6.00;;;;;;;;;;5062325;28;20241;-57
2022/04/01 13:27:32;;;;;;;7.05;6.55;;;;;;;;;;5062130;28;20208;-57
2022/04/01 13:29:59;;;;;;;5.97;5.68;;;;;;;;;;5061532;28;20209;-57
2022/04/01 13:32:25;;;;;;;6.25;5.95;;;;;;;;;;5061620;28;20229;-57
2022/04/01 13:34:52;;;;;;;5.97;5.57;;;;;;;;;;5062139;28;20205;-58
2022/04/01 13:37:19;;;;;;;6.68;6.18;;;;;;;;;;5061401;28;20432;-59
2022/04/01 13:39:46;;;;;;;6.38;5.93;;;;;;;;;;5061802;28;20552;-58
2022/04/01 13:42:12;;;;;;;7.10;6.50;;;;;;;;;;5061951;28;20261;-56
2022/04/01 13:44:40;;;;;;;6.85;6.25;;;;;;;;;;5061402;28;20228;-57
2022/04/01 13:47:06;;;;;;;6.68;6.10;;;;;;;;;;5061434;28;20208;-57
2022/04/01 13:49:33;;;;;;;6.80;6.20;;;;;;;;;;5061783;28;20464;-58
2022/04/01 13:52:00;;;;;;;6.78;6.25;;;;;;;;;;5061931;28;20255;-58
2022/04/01 13:54:27;;;;;;;6.43;5.93;;;;;;;;;;5061657;28;20562;-57
2022/04/01 13:56:54;;;;;;;6.68;6.20;;;;;;;;;;5061818;28;20747;-57
2022/04/01 13:59:20;;;;;;;7.57;6.35;;;;;;;;;;5060488;28;20652;-58
2022/04/01 14:01:48;;;;;;;6.72;5.82;;;;;;;;;;5061668;28;20205;-58
2022/04/01 14:04:15;;;;;;;7.13;6.53;;;;;;;;;;5061434;28;20346;-57
2022/04/01 14:06:42;;;;;;;6.97;6.32;;;;;;;;;;5060646;28;20229;-58
2022/04/01 14:09:09;;;;;;;8.38;7.57;;;;;;;;;;5061160;28;20210;-59
2022/04/01 14:11:35;;;;;;;7.88;6.78;;;;;;;;;;5061107;28;20407;-58
2022/04/01 14:14:02;;;;;;;7.13;6.57;;;;;;;;;;5061269;28;20420;-57
2022/04/01 14:16:28;;;;;;;8.30;6.97;;;;;;;;;;5060522;28;20520;-58
2022/04/01 14:18:56;;;;;;;7.00;6.30;;;;;;;;;;5061144;28;20296;-57
2022/04/01 14:21:22;;;;;;;6.75;6.25;;;;;;;;;;5061321;28;20369;-57
2022/04/01 14:23:48;;;;;;;6.35;5.95;;;;;;;;;;5060620;28;20265;-57
2022/04/01 14:26:14;;;;;;;6.95;6.15;;;;;;;;;;5059945;28;20216;-58
2022/04/01 14:28:41;;;;;;;7.47;6.90;;;;;;;;;;5060843;28;20193;-57
2022/04/01 14:31:08;;;;;;;6.65;6.10;;;;;;;;;;5060555;28;20445;-58
2022/04/01 14:33:34;;;;;;;6.50;6.10;;;;;;;;;;5060450;28;20239;-58
2022/04/01 14:36:02;;;;;;;6.15;5.75;;;;;;;;;;5060024;28;20205;-59
2022/04/01 14:38:28;;;;;;;5.80;5.50;;;;;;;;;;5058273;28;20232;-57
2022/04/01 14:40:55;;;;;;;5.88;5.55;;;;;;;;;;5057727;28;20251;-57
2022/04/01 14:43:22;;;;;;;6.70;6.20;;;;;;;;;;5057626;28;20279;-57
2022/04/01 14:45:48;;;;;;;6.82;6.32;;;;;;;;;;5058174;28;20254;-58
2022/04/01 14:48:15;;;;;;;7.72;7.00;;;;;;;;;;5057482;28;20221;-59
2022/04/01 14:50:41;;;;;;;7.55;6.95;;;;;;;;;;5058562;28;20209;-60
2022/04/01 14:53:10;;;;;;;7.85;7.35;;;;;;;;;;5058630;28;20247;-58
2022/04/01 14:55:37;;;;;;;8.55;7.85;;;;;;;;;;5058174;28;20209;-59
2022/04/01 14:58:03;;;;;;;9.20;8.45;;;;;;;;;;5057354;28;20289;-58
2022/04/01 15:00:30;;;;;;;9.65;8.80;;;;;;;;;;5058388;28;20251;-59
2022/04/01 15:02:56;;;;;;;9.38;8.68;;;;;;;;;;5057995;28;20259;-58